createdAt,value
2023-03-06T00:01:54.746Z,-2.51
2023-03-06T00:04:21.664Z,-2.52
2023-03-06T00:06:48.889Z,-2.57
2023-03-06T00:09:15.807Z,-2.60
2023-03-06T00:11:42.675Z,-2.63
2023-03-06T00:14:09.553Z,-2.64
2023-03-06T00:16:36.522Z,-2.65
2023-03-06T00:19:03.504Z,-2.66
2023-03-06T00:21:30.566Z,-2.65
2023-03-06T00:23:57.480Z,-2.65
2023-03-06T00:26:24.395Z,-2.69
2023-03-06T00:28:51.256Z,-2.72
2023-03-06T00:31:18.246Z,-2.74
2023-03-06T00:33:45.110Z,-2.76
2023-03-06T00:36:12.094Z,-2.77
2023-03-06T00:38:41.005Z,-2.78
2023-03-06T00:41:11.669Z,-2.80
2023-03-06T00:43:38.921Z,-2.81
2023-03-06T00:46:08.083Z,-2.85
2023-03-06T00:48:35.067Z,-2.82
2023-03-06T00:51:01.953Z,-2.84
2023-03-06T00:53:28.959Z,-2.85
2023-03-06T00:55:55.988Z,-2.83
2023-03-06T00:58:22.884Z,-2.85
2023-03-06T01:00:49.852Z,-2.87
2023-03-06T01:03:16.886Z,-2.88
2023-03-06T01:05:43.827Z,-2.89
2023-03-06T01:08:10.808Z,-2.88
2023-03-06T01:10:41.262Z,-2.89
2023-03-06T01:13:09.351Z,-2.90
2023-03-06T01:15:36.244Z,-2.86
2023-03-06T01:18:03.153Z,-2.87
2023-03-06T01:20:30.204Z,-2.86
2023-03-06T01:22:57.239Z,-2.86
2023-03-06T01:25:24.758Z,-2.85
2023-03-06T01:27:51.794Z,-2.84
2023-03-06T01:30:19.226Z,-2.86
2023-03-06T01:32:46.762Z,-2.85
2023-03-06T01:35:13.956Z,-2.87
2023-03-06T01:37:41.092Z,-2.89
2023-03-06T01:40:08.899Z,-2.92
2023-03-06T01:42:35.979Z,-2.95
2023-03-06T01:45:06.047Z,-2.94
2023-03-06T01:47:35.014Z,-2.94
2023-03-06T01:50:04.159Z,-2.93
2023-03-06T01:52:33.138Z,-2.96
2023-03-06T01:55:05.711Z,-2.97
2023-03-06T01:57:34.456Z,-3.00
2023-03-06T02:00:04.651Z,-3.02
2023-03-06T02:02:40.604Z,-3.06
2023-03-06T02:05:08.281Z,-3.10
2023-03-06T02:07:36.591Z,-3.10
2023-03-06T02:10:05.273Z,-3.09
2023-03-06T02:12:32.188Z,-3.08
2023-03-06T02:14:59.374Z,-3.07
2023-03-06T02:17:27.871Z,-3.05
2023-03-06T02:19:54.957Z,-3.03
2023-03-06T02:22:22.404Z,-3.05
2023-03-06T02:24:57.629Z,-3.12
2023-03-06T02:27:25.270Z,-3.11
2023-03-06T02:29:55.015Z,-3.15
2023-03-06T02:32:21.970Z,-3.15
2023-03-06T02:34:54.578Z,-3.14
2023-03-06T02:37:22.940Z,-3.15
2023-03-06T02:40:09.782Z,-3.18
2023-03-06T02:42:36.954Z,-3.18
2023-03-06T02:45:05.533Z,-3.18
2023-03-06T02:47:33.228Z,-3.20
2023-03-06T02:50:00.569Z,-3.20
2023-03-06T02:52:27.548Z,-3.22
2023-03-06T02:54:55.838Z,-3.21
2023-03-06T02:57:22.866Z,-3.20
2023-03-06T03:00:09.951Z,-3.17
2023-03-06T03:02:37.497Z,-3.15
2023-03-06T03:05:04.666Z,-3.15
2023-03-06T03:07:31.989Z,-3.14
2023-03-06T03:09:59.099Z,-3.12
2023-03-06T03:12:28.762Z,-3.12
2023-03-06T03:14:56.749Z,-3.11
2023-03-06T03:17:24.048Z,-3.10
2023-03-06T03:19:51.998Z,-3.05
2023-03-06T03:22:19.874Z,-3.05
2023-03-06T03:24:47.395Z,-3.05
2023-03-06T03:27:14.873Z,-3.03
2023-03-06T03:29:42.914Z,-3.03
2023-03-06T03:32:10.319Z,-3.02
2023-03-06T03:34:37.697Z,-3.01
2023-03-06T03:37:05.544Z,-3.08
2023-03-06T03:39:32.942Z,-3.06
2023-03-06T03:42:00.013Z,-3.06
2023-03-06T03:44:28.165Z,-3.05
2023-03-06T03:46:55.861Z,-3.01
2023-03-06T03:49:23.418Z,-3.06
2023-03-06T03:51:51.166Z,-3.08
2023-03-06T03:54:20.356Z,-3.12
2023-03-06T03:56:49.918Z,-3.16
2023-03-06T03:59:23.156Z,-3.17
2023-03-06T04:02:07.635Z,-3.17
2023-03-06T04:04:41.342Z,-3.18
2023-03-06T04:07:10.271Z,-3.17
2023-03-06T04:09:39.015Z,-3.16
2023-03-06T04:12:06.680Z,-3.13
2023-03-06T04:14:35.512Z,-3.15
2023-03-06T04:17:03.371Z,-3.14
2023-03-06T04:19:30.401Z,-3.15
2023-03-06T04:21:57.951Z,-3.16
2023-03-06T04:24:25.456Z,-3.15
2023-03-06T04:26:52.948Z,-3.10
2023-03-06T04:29:19.836Z,-3.04
2023-03-06T04:31:47.037Z,-3.03
2023-03-06T04:34:14.301Z,-2.99
2023-03-06T04:36:45.258Z,-2.96
2023-03-06T04:39:14.492Z,-3.01
2023-03-06T04:41:42.284Z,-2.96
2023-03-06T04:44:09.512Z,-2.92
2023-03-06T04:46:45.447Z,-2.89
2023-03-06T04:49:12.438Z,-2.86
2023-03-06T04:51:39.534Z,-2.84
2023-03-06T04:54:06.461Z,-2.81
2023-03-06T04:56:34.716Z,-2.78
2023-03-06T04:59:02.664Z,-2.80
2023-03-06T05:01:29.686Z,-2.75
2023-03-06T05:03:56.778Z,-2.75
2023-03-06T05:06:23.726Z,-2.73
2023-03-06T05:08:50.697Z,-2.72
2023-03-06T05:11:17.705Z,-2.69
2023-03-06T05:13:44.655Z,-2.67
2023-03-06T05:16:11.697Z,-2.69
2023-03-06T05:18:38.630Z,-2.73
2023-03-06T05:21:06.364Z,-2.61
2023-03-06T05:23:34.553Z,-2.46
2023-03-06T05:26:01.438Z,-2.40
2023-03-06T05:28:28.905Z,-2.34
2023-03-06T05:30:55.852Z,-2.37
2023-03-06T05:33:22.846Z,-2.34
2023-03-06T05:35:50.314Z,-2.39
2023-03-06T05:38:17.938Z,-2.36
2023-03-06T05:40:45.296Z,-2.33
2023-03-06T05:43:17.530Z,-2.28
2023-03-06T05:45:44.785Z,-2.28
2023-03-06T05:48:12.883Z,-2.13
2023-03-06T05:50:40.396Z,-2.14
2023-03-06T05:53:07.690Z,-2.22
2023-03-06T05:55:34.683Z,-2.21
2023-03-06T05:58:01.580Z,-2.30
2023-03-06T06:00:28.607Z,-2.26
2023-03-06T06:02:55.646Z,-2.15
2023-03-06T06:05:22.774Z,-2.27
2023-03-06T06:07:49.747Z,-2.14
2023-03-06T06:10:18.169Z,-2.13
2023-03-06T06:12:45.915Z,-2.15
2023-03-06T06:15:13.754Z,-2.09
2023-03-06T06:17:40.828Z,-2.06
2023-03-06T06:20:10.616Z,-2.07
2023-03-06T06:22:38.347Z,-2.09
2023-03-06T06:25:06.024Z,-2.01
2023-03-06T06:27:33.103Z,-2.01
2023-03-06T06:30:00.151Z,-1.95
2023-03-06T06:32:28.085Z,-1.87
2023-03-06T06:34:55.613Z,-1.93
2023-03-06T06:37:22.747Z,-1.94
2023-03-06T06:39:52.049Z,-2.04
2023-03-06T06:42:31.444Z,-1.95
2023-03-06T06:45:02.956Z,-1.96
2023-03-06T06:47:35.015Z,-1.87
2023-03-06T06:50:02.716Z,-1.76
2023-03-06T06:52:31.132Z,-1.66
2023-03-06T06:54:59.333Z,-1.47
2023-03-06T06:57:26.542Z,-1.44
2023-03-06T06:59:54.264Z,-1.42
2023-03-06T07:02:21.661Z,-1.30
2023-03-06T07:05:02.534Z,-1.24
2023-03-06T07:07:31.513Z,-1.38
2023-03-06T07:09:58.432Z,-1.41
2023-03-06T07:12:25.599Z,-1.40
2023-03-06T07:14:52.655Z,-1.38
2023-03-06T07:17:19.534Z,-1.38
2023-03-06T07:19:46.733Z,-1.33
2023-03-06T07:22:14.155Z,-1.17
2023-03-06T07:24:41.171Z,-1.12
2023-03-06T07:27:08.210Z,-1.25
2023-03-06T07:29:35.185Z,-1.35
2023-03-06T07:32:02.288Z,-1.43
2023-03-06T07:34:29.273Z,-1.40
2023-03-06T07:36:57.451Z,-1.52
2023-03-06T07:39:24.560Z,-1.61
2023-03-06T07:41:52.911Z,-1.67
2023-03-06T07:44:20.251Z,-1.62
2023-03-06T07:46:47.287Z,-1.54
2023-03-06T07:49:15.232Z,-1.51
2023-03-06T07:51:42.448Z,-1.41
2023-03-06T07:54:09.770Z,-1.44
2023-03-06T07:56:37.461Z,-1.46
2023-03-06T07:59:04.782Z,-1.45
2023-03-06T08:01:33.442Z,-1.35
2023-03-06T08:04:02.645Z,-1.41
2023-03-06T08:06:30.235Z,-1.36
2023-03-06T08:08:57.959Z,-1.43
2023-03-06T08:11:26.313Z,-1.52
2023-03-06T08:13:54.405Z,-1.49
2023-03-06T08:16:22.646Z,-1.55
2023-03-06T08:18:50.192Z,-1.54
2023-03-06T08:21:18.838Z,-1.66
2023-03-06T08:23:46.046Z,-1.68
2023-03-06T08:26:20.456Z,-1.62
2023-03-06T08:28:47.734Z,-1.56
2023-03-06T08:31:25.703Z,-1.51
2023-03-06T08:33:53.276Z,-1.37
2023-03-06T08:36:20.204Z,-1.36
2023-03-06T08:38:47.622Z,-1.22
2023-03-06T08:41:15.127Z,-1.15
2023-03-06T08:43:42.852Z,-1.12
2023-03-06T08:46:10.742Z,-1.08
2023-03-06T08:48:38.249Z,-1.03
2023-03-06T08:51:05.519Z,-0.99
2023-03-06T08:53:42.670Z,-0.86
2023-03-06T08:56:21.959Z,-0.84
2023-03-06T08:58:49.092Z,-0.85
2023-03-06T09:01:17.918Z,-0.86
2023-03-06T09:03:45.744Z,-0.91
2023-03-06T09:06:17.620Z,-0.97
2023-03-06T09:08:44.890Z,-0.96
2023-03-06T09:11:15.789Z,-0.74
2023-03-06T09:13:43.276Z,-0.65
2023-03-06T09:16:10.869Z,-0.44
2023-03-06T09:18:39.727Z,-0.57
2023-03-06T09:21:07.233Z,-0.65
2023-03-06T09:23:34.404Z,-0.71
2023-03-06T09:26:02.266Z,-0.88
2023-03-06T09:28:29.545Z,-0.96
2023-03-06T09:30:57.988Z,-0.89
2023-03-06T09:33:25.805Z,-0.90
2023-03-06T09:35:55.323Z,-0.89
2023-03-06T09:38:25.817Z,-0.78
2023-03-06T09:40:59.394Z,-0.84
2023-03-06T09:43:32.225Z,-0.82
2023-03-06T09:45:59.570Z,-0.80
2023-03-06T09:48:39.611Z,-0.83
2023-03-06T09:51:11.841Z,-0.98
2023-03-06T09:53:38.923Z,-1.07
2023-03-06T09:56:16.408Z,-1.15
2023-03-06T09:58:56.295Z,-1.13
2023-03-06T10:01:31.943Z,-1.22
2023-03-06T10:04:22.286Z,-1.18
2023-03-06T10:06:51.887Z,-1.05
2023-03-06T10:09:24.891Z,-0.89
2023-03-06T10:11:55.700Z,-0.62
2023-03-06T10:14:29.726Z,-0.59
2023-03-06T10:16:57.211Z,-0.52
2023-03-06T10:19:30.844Z,-0.60
2023-03-06T10:22:01.191Z,-0.60
2023-03-06T10:24:34.183Z,-0.74
2023-03-06T10:27:21.705Z,-0.76
2023-03-06T10:30:02.086Z,-0.73
2023-03-06T10:32:47.421Z,-0.68
2023-03-06T10:35:33.517Z,-0.69
2023-03-06T10:38:02.185Z,-0.74
2023-03-06T10:40:36.288Z,-0.56
2023-03-06T10:43:11.412Z,-0.41
2023-03-06T10:45:49.858Z,-0.34
2023-03-06T10:48:21.586Z,-0.19
2023-03-06T10:50:49.069Z,-0.38
2023-03-06T10:53:24.015Z,-0.53
2023-03-06T10:55:59.615Z,-0.46
2023-03-06T10:58:31.968Z,-0.52
2023-03-06T11:01:18.805Z,-0.62
2023-03-06T11:03:45.938Z,-0.63
2023-03-06T11:06:14.621Z,-0.71
2023-03-06T11:08:43.283Z,-0.64
2023-03-06T11:11:36.803Z,-0.73
2023-03-06T11:14:16.022Z,-0.85
2023-03-06T11:16:53.459Z,-0.84
2023-03-06T11:19:23.930Z,-0.97
2023-03-06T11:22:01.311Z,-1.11
2023-03-06T11:24:33.035Z,-1.10
2023-03-06T11:27:02.317Z,-1.08
2023-03-06T11:29:34.607Z,-1.01
2023-03-06T11:32:10.536Z,-0.97
2023-03-06T11:34:40.789Z,-0.91
2023-03-06T11:37:37.358Z,-0.87
2023-03-06T11:40:13.239Z,-0.61
2023-03-06T11:42:52.360Z,-0.33
2023-03-06T11:45:23.473Z,-0.17
2023-03-06T11:48:11.827Z,-0.01
2023-03-06T11:50:42.114Z,0.08
2023-03-06T11:53:14.441Z,-0.01
2023-03-06T11:56:00.220Z,-0.31
2023-03-06T11:58:46.054Z,-0.13
2023-03-06T12:01:32.158Z,0.23
2023-03-06T12:04:03.635Z,0.34
2023-03-06T12:06:30.660Z,0.30
2023-03-06T12:09:09.162Z,0.08
2023-03-06T12:11:39.471Z,-0.02
2023-03-06T12:14:09.667Z,-0.05
2023-03-06T12:16:54.978Z,-0.15
2023-03-06T12:19:36.252Z,-0.20
2023-03-06T12:22:06.329Z,-0.16
2023-03-06T12:24:42.698Z,-0.17
2023-03-06T12:27:19.905Z,-0.18
2023-03-06T12:30:05.781Z,-0.45
2023-03-06T12:32:39.567Z,-0.62
2023-03-06T12:35:25.689Z,-0.71
2023-03-06T12:37:52.678Z,-0.81
2023-03-06T12:40:22.314Z,-1.05
2023-03-06T12:42:52.665Z,-1.14
2023-03-06T12:45:29.105Z,-1.47
2023-03-06T12:47:57.536Z,-1.47
2023-03-06T12:50:26.388Z,-1.39
2023-03-06T12:52:55.201Z,-1.43
2023-03-06T12:55:25.751Z,-1.42
2023-03-06T12:57:53.649Z,-1.40
2023-03-06T13:00:33.364Z,-1.38
2023-03-06T13:03:26.818Z,-1.38
2023-03-06T13:05:56.949Z,-1.44
2023-03-06T13:08:27.009Z,-1.49
2023-03-06T13:11:09.314Z,-1.51
2023-03-06T13:13:42.885Z,-1.51
2023-03-06T13:16:12.832Z,-1.58
2023-03-06T13:18:46.372Z,-1.76
2023-03-06T13:21:32.062Z,-2.03
2023-03-06T13:24:05.853Z,-2.15
2023-03-06T13:26:32.858Z,-2.11
2023-03-06T13:29:00.777Z,-1.97
2023-03-06T13:31:29.296Z,-1.17
2023-03-06T13:34:02.069Z,-0.34
2023-03-06T13:36:33.303Z,0.17
2023-03-06T13:39:00.406Z,0.42
2023-03-06T13:41:34.351Z,-0.07
2023-03-06T13:44:28.524Z,0.11
2023-03-06T13:47:00.145Z,0.22
2023-03-06T13:49:27.867Z,0.17
2023-03-06T13:51:55.037Z,0.15
2023-03-06T13:54:48.567Z,0.04
2023-03-06T13:57:18.731Z,-0.20
2023-03-06T14:00:09.766Z,-0.26
2023-03-06T14:02:37.025Z,-0.36
2023-03-06T14:05:10.711Z,-0.57
2023-03-06T14:07:48.294Z,-0.66
2023-03-06T14:10:15.426Z,-0.78
2023-03-06T14:13:03.121Z,-0.98
2023-03-06T14:15:33.033Z,-1.10
2023-03-06T14:18:07.575Z,-1.15
2023-03-06T14:20:40.438Z,-0.97
2023-03-06T14:23:16.991Z,-0.65
2023-03-06T14:25:45.459Z,-0.70
2023-03-06T14:28:23.314Z,-0.71
2023-03-06T14:30:54.057Z,-0.75
2023-03-06T14:33:39.677Z,-1.02
2023-03-06T14:36:09.969Z,-1.20
2023-03-06T14:38:42.693Z,-1.35
2023-03-06T14:41:12.944Z,-1.48
2023-03-06T14:43:42.156Z,-1.61
2023-03-06T14:46:18.853Z,-1.67
2023-03-06T14:48:47.005Z,-1.74
2023-03-06T14:51:21.796Z,-1.81
2023-03-06T14:53:54.065Z,-1.89
2023-03-06T14:56:23.279Z,-2.01
2023-03-06T14:59:00.982Z,-2.05
2023-03-06T15:01:31.966Z,-2.13
2023-03-06T15:04:00.605Z,-2.19
2023-03-06T15:06:31.345Z,-2.16
2023-03-06T15:09:01.495Z,-2.17
2023-03-06T15:11:48.706Z,-2.17
2023-03-06T15:14:27.622Z,-2.19
2023-03-06T15:16:54.805Z,-2.25
2023-03-06T15:19:22.432Z,-2.25
2023-03-06T15:21:51.226Z,-2.27
2023-03-06T15:24:38.682Z,-2.28
2023-03-06T15:27:07.705Z,-2.27
2023-03-06T15:29:38.913Z,-2.30
2023-03-06T15:32:13.514Z,-2.33
2023-03-06T15:34:40.529Z,-2.35
2023-03-06T15:37:28.976Z,-2.36
2023-03-06T15:40:03.229Z,-2.37
2023-03-06T15:42:34.564Z,-2.40
2023-03-06T15:45:12.472Z,-2.39
2023-03-06T15:47:39.575Z,-2.39
2023-03-06T15:50:13.966Z,-2.44
2023-03-06T15:52:41.012Z,-2.40
2023-03-06T15:55:08.193Z,-2.37
2023-03-06T15:57:35.399Z,-2.36
2023-03-06T16:00:02.677Z,-2.46
2023-03-06T16:02:39.421Z,-2.47
2023-03-06T16:05:17.742Z,-2.54
2023-03-06T16:07:44.911Z,-2.49
2023-03-06T16:10:13.607Z,-2.44
2023-03-06T16:12:43.015Z,-2.48
2023-03-06T16:15:17.536Z,-2.54
2023-03-06T16:17:44.803Z,-2.54
2023-03-06T16:20:18.845Z,-2.52
2023-03-06T16:22:46.822Z,-2.53
2023-03-06T16:25:14.602Z,-2.50
2023-03-06T16:27:48.344Z,-2.55
2023-03-06T16:30:19.707Z,-2.57
2023-03-06T16:32:46.888Z,-2.49
2023-03-06T16:35:14.686Z,-2.53
2023-03-06T16:37:41.845Z,-2.50
2023-03-06T16:40:32.817Z,-2.56
2023-03-06T16:42:59.898Z,-2.62
2023-03-06T16:45:27.264Z,-2.66
2023-03-06T16:47:54.707Z,-2.65
2023-03-06T16:50:26.449Z,-2.75
2023-03-06T16:52:54.721Z,-2.81
2023-03-06T16:55:22.096Z,-2.83
2023-03-06T16:57:49.235Z,-2.87
2023-03-06T17:00:17.974Z,-2.90
2023-03-06T17:02:47.813Z,-2.89
2023-03-06T17:05:15.107Z,-2.90
2023-03-06T17:07:42.134Z,-2.91
2023-03-06T17:10:11.455Z,-2.91
2023-03-06T17:12:39.545Z,-2.92
2023-03-06T17:15:20.717Z,-2.90
2023-03-06T17:17:48.841Z,-2.94
2023-03-06T17:20:15.902Z,-2.91
2023-03-06T17:22:43.151Z,-2.89
2023-03-06T17:25:10.287Z,-2.89
2023-03-06T17:27:37.432Z,-2.90
2023-03-06T17:30:05.297Z,-2.90
2023-03-06T17:32:33.019Z,-2.92
2023-03-06T17:35:00.181Z,-2.91
2023-03-06T17:37:27.230Z,-2.90
2023-03-06T17:39:56.453Z,-2.91
2023-03-06T17:42:23.673Z,-2.90
2023-03-06T17:44:54.090Z,-2.91
2023-03-06T17:47:21.062Z,-2.92
2023-03-06T17:49:47.966Z,-2.95
2023-03-06T17:52:14.821Z,-2.87
2023-03-06T17:54:42.058Z,-2.88
2023-03-06T17:57:09.128Z,-2.93
2023-03-06T17:59:36.143Z,-2.91
2023-03-06T18:02:03.190Z,-2.91
2023-03-06T18:04:30.347Z,-2.90
2023-03-06T18:06:58.589Z,-2.91
2023-03-06T18:09:25.901Z,-2.99
2023-03-06T18:11:52.843Z,-2.98
2023-03-06T18:14:19.776Z,-3.00
2023-03-06T18:16:46.904Z,-3.02
2023-03-06T18:19:14.569Z,-3.10
2023-03-06T18:21:41.700Z,-3.06
2023-03-06T18:24:09.512Z,-3.08
2023-03-06T18:26:36.690Z,-3.06
2023-03-06T18:29:04.662Z,-3.08
2023-03-06T18:31:34.665Z,-3.10
2023-03-06T18:34:03.577Z,-3.14
2023-03-06T18:36:31.763Z,-3.10
2023-03-06T18:38:59.428Z,-3.11
2023-03-06T18:41:26.449Z,-3.10
2023-03-06T18:43:57.469Z,-3.14
2023-03-06T18:46:25.560Z,-3.15
2023-03-06T18:48:52.463Z,-3.21
2023-03-06T18:51:20.304Z,-3.26
2023-03-06T18:53:47.448Z,-3.20
2023-03-06T18:56:18.995Z,-3.23
2023-03-06T18:58:46.556Z,-3.21
2023-03-06T19:01:13.642Z,-3.23
2023-03-06T19:03:43.339Z,-3.19
2023-03-06T19:06:12.493Z,-3.26
2023-03-06T19:08:40.158Z,-3.26
2023-03-06T19:11:08.764Z,-3.30
2023-03-06T19:13:35.813Z,-3.36
2023-03-06T19:16:03.410Z,-3.36
2023-03-06T19:18:30.734Z,-3.34
2023-03-06T19:21:07.192Z,-3.37
2023-03-06T19:23:34.174Z,-3.41
2023-03-06T19:26:01.194Z,-3.45
2023-03-06T19:28:28.101Z,-3.42
2023-03-06T19:30:54.993Z,-3.42
2023-03-06T19:33:22.859Z,-3.43
2023-03-06T19:35:49.857Z,-3.46
2023-03-06T19:38:16.818Z,-3.50
2023-03-06T19:40:50.506Z,-3.50
2023-03-06T19:43:17.629Z,-3.53
2023-03-06T19:45:44.875Z,-3.54
2023-03-06T19:48:12.634Z,-3.56
2023-03-06T19:50:40.146Z,-3.56
2023-03-06T19:53:08.034Z,-3.59
2023-03-06T19:55:35.004Z,-3.62
2023-03-06T19:58:02.158Z,-3.64
2023-03-06T20:00:29.440Z,-3.65
2023-03-06T20:02:56.696Z,-3.60
2023-03-06T20:05:23.819Z,-3.64
2023-03-06T20:07:50.761Z,-3.56
2023-03-06T20:10:18.106Z,-3.54
2023-03-06T20:12:45.155Z,-3.51
2023-03-06T20:15:12.363Z,-3.50
2023-03-06T20:17:42.177Z,-3.45
2023-03-06T20:20:10.031Z,-3.47
2023-03-06T20:22:37.154Z,-3.44
2023-03-06T20:25:04.563Z,-3.46
2023-03-06T20:27:32.032Z,-3.41
2023-03-06T20:29:59.178Z,-3.39
2023-03-06T20:32:26.567Z,-3.38
2023-03-06T20:34:53.836Z,-3.40
2023-03-06T20:37:21.086Z,-3.36
2023-03-06T20:39:48.290Z,-3.37
2023-03-06T20:42:15.492Z,-3.34
2023-03-06T20:44:42.400Z,-3.31
2023-03-06T20:47:09.907Z,-3.32
2023-03-06T20:49:36.855Z,-3.28
2023-03-06T20:52:05.192Z,-3.33
2023-03-06T20:54:32.178Z,-3.31
2023-03-06T20:56:59.482Z,-3.31
2023-03-06T20:59:26.714Z,-3.27
2023-03-06T21:01:53.731Z,-3.30
2023-03-06T21:04:20.812Z,-3.26
2023-03-06T21:06:48.057Z,-3.24
2023-03-06T21:09:16.359Z,-3.25
2023-03-06T21:11:43.425Z,-3.25
2023-03-06T21:14:12.468Z,-3.24
2023-03-06T21:16:39.409Z,-3.21
2023-03-06T21:19:06.547Z,-3.22
2023-03-06T21:21:34.706Z,-3.21
2023-03-06T21:24:02.305Z,-3.24
2023-03-06T21:26:30.564Z,-3.25
2023-03-06T21:28:59.055Z,-3.31
2023-03-06T21:31:28.567Z,-3.33
2023-03-06T21:33:56.266Z,-3.33
2023-03-06T21:36:23.737Z,-3.38
2023-03-06T21:38:51.975Z,-3.39
2023-03-06T21:41:20.480Z,-3.39
2023-03-06T21:43:47.745Z,-3.40
2023-03-06T21:46:14.943Z,-3.41
2023-03-06T21:48:42.104Z,-3.39
2023-03-06T21:51:10.803Z,-3.40
2023-03-06T21:53:38.573Z,-3.40
2023-03-06T21:56:05.711Z,-3.42
2023-03-06T21:58:33.168Z,-3.42
2023-03-06T22:01:00.262Z,-3.36
2023-03-06T22:03:28.748Z,-3.36
2023-03-06T22:05:56.696Z,-3.37
2023-03-06T22:08:25.302Z,-3.38
2023-03-06T22:10:52.859Z,-3.35
2023-03-06T22:13:20.202Z,-3.36
2023-03-06T22:15:51.116Z,-3.34
2023-03-06T22:18:18.099Z,-3.40
2023-03-06T22:20:45.311Z,-3.35
2023-03-06T22:23:12.420Z,-3.31
2023-03-06T22:25:39.571Z,-3.32
2023-03-06T22:28:06.550Z,-3.34
2023-03-06T22:30:33.460Z,-3.36
2023-03-06T22:33:00.989Z,-3.37
2023-03-06T22:35:27.930Z,-3.37
2023-03-06T22:37:55.181Z,-3.38
2023-03-06T22:40:22.211Z,-3.36
2023-03-06T22:42:49.126Z,-3.36
2023-03-06T22:45:16.158Z,-3.37
2023-03-06T22:47:43.129Z,-3.34
2023-03-06T22:50:10.781Z,-3.32
2023-03-06T22:52:38.934Z,-3.36
2023-03-06T22:55:06.234Z,-3.36
2023-03-06T22:57:33.144Z,-3.33
2023-03-06T23:00:00.111Z,-3.35
2023-03-06T23:02:32.248Z,-3.37
2023-03-06T23:04:59.496Z,-3.33
2023-03-06T23:07:26.382Z,-3.37
2023-03-06T23:10:00.640Z,-3.40
2023-03-06T23:12:46.343Z,-3.44
2023-03-06T23:15:31.825Z,-3.41
2023-03-06T23:18:17.420Z,-3.40
2023-03-06T23:21:09.001Z,-3.40
2023-03-06T23:23:54.734Z,-3.40
2023-03-06T23:26:26.112Z,-3.38
2023-03-06T23:28:53.398Z,-3.35
2023-03-06T23:31:22.703Z,-3.34
2023-03-06T23:33:50.040Z,-3.31
2023-03-06T23:36:17.873Z,-3.33
2023-03-06T23:38:44.885Z,-3.34
2023-03-06T23:41:13.228Z,-3.38
2023-03-06T23:43:40.137Z,-3.40
2023-03-06T23:46:07.678Z,-3.47
2023-03-06T23:48:36.152Z,-3.48
2023-03-06T23:51:14.400Z,-3.50
2023-03-06T23:53:41.628Z,-3.45
2023-03-06T23:56:08.769Z,-3.47
2023-03-06T23:58:36.054Z,-3.49
